Time;durP1;ratioP1;P1;durP2;ratioP2;P2;SDS_P1;SDS_P2;PMS_P1;PMS_P2;Temp;Humidity;BMP_temperature;BMP_pressure;BME280_temperature;BME280_humidity;BME280_pressure;Samples;Min_cycle;Max_cycle;Signal;HPM_P1;HPM_P2
2022/04/30 00:01:30;;;;;;;7.65;3.60;;;8.30;99.90;;;;;;5088310;28;20532;-59
2022/04/30 00:03:56;;;;;;;5.07;3.17;;;8.40;99.90;;;;;;5095972;28;20051;-59
2022/04/30 00:06:23;;;;;;;4.28;2.88;;;8.60;99.90;;;;;;5111860;28;20553;-58
2022/04/30 00:08:50;;;;;;;4.83;3.07;;;8.60;99.90;;;;;;5112138;28;20100;-58
2022/04/30 00:11:17;;;;;;;4.63;2.95;;;8.70;99.90;;;;;;5088576;28;20031;-59
2022/04/30 00:13:43;;;;;;;8.00;3.30;;;8.80;99.90;;;;;;5106158;28;20514;-58
2022/04/30 00:16:10;;;;;;;5.63;3.40;;;8.70;99.90;;;;;;5112223;28;20277;-59
2022/04/30 00:18:37;;;;;;;4.03;2.95;;;8.80;99.90;;;;;;5112152;28;20278;-58
2022/04/30 00:21:05;;;;;;;6.07;3.17;;;8.70;99.90;;;;;;5101660;28;20032;-59
2022/04/30 00:23:31;;;;;;;4.22;3.30;;;8.70;99.90;;;;;;5085688;28;20444;-58
2022/04/30 00:25:58;;;;;;;6.32;3.30;;;8.60;99.90;;;;;;5111819;28;20058;-59
2022/04/30 00:28:26;;;;;;;4.53;2.35;;;8.60;99.90;;;;;;5112274;28;20437;-58
2022/04/30 00:30:54;;;;;;;5.53;3.15;;;8.60;99.90;;;;;;5100381;28;20850;-59
2022/04/30 00:33:21;;;;;;;6.07;3.40;;;8.50;99.90;;;;;;5111063;28;20038;-58
2022/04/30 00:35:48;;;;;;;4.90;3.17;;;8.50;99.90;;;;;;5112220;28;20376;-58
2022/04/30 00:38:15;;;;;;;5.28;3.22;;;8.50;99.90;;;;;;5109491;28;20082;-59
2022/04/30 00:40:43;;;;;;;4.50;3.42;;;8.50;99.90;;;;;;5102992;28;20044;-59
2022/04/30 00:43:09;;;;;;;5.53;3.40;;;8.50;99.90;;;;;;5111822;28;20047;-58
2022/04/30 00:45:36;;;;;;;6.20;4.88;;;8.60;99.90;;;;;;5111882;28;20039;-58
2022/04/30 00:48:04;;;;;;;9.27;5.55;;;8.40;99.90;;;;;;5083665;28;20139;-57
2022/04/30 00:50:33;;;;;;;7.20;5.55;;;8.00;99.90;;;;;;5103336;28;20039;-58
2022/04/30 00:53:03;;;;;;;10.73;5.65;;;7.70;99.90;;;;;;5111933;28;20492;-58
2022/04/30 00:55:32;;;;;;;9.23;5.53;;;7.60;99.90;;;;;;5111782;28;20052;-58
2022/04/30 00:58:04;;;;;;;9.80;5.70;;;7.50;99.90;;;;;;5096967;28;20528;-58
2022/04/30 01:00:32;;;;;;;11.80;5.40;;;7.50;99.90;;;;;;5070718;28;20055;-58
2022/04/30 01:03:11;;;;;;;9.48;5.63;;;7.50;99.90;;;;;;5053221;28;20457;-59
2022/04/30 01:05:44;;;;;;;13.80;6.82;;;7.50;99.90;;;;;;5078379;28;20044;-58
2022/04/30 01:08:10;;;;;;;11.00;5.97;;;7.60;99.90;;;;;;5109391;28;20035;-58
2022/04/30 01:10:37;;;;;;;8.68;5.43;;;7.60;99.90;;;;;;5111112;28;20047;-58
2022/04/30 01:13:05;;;;;;;8.57;4.45;;;7.60;99.90;;;;;;5095894;28;20043;-59
2022/04/30 01:15:32;;;;;;;7.72;4.30;;;7.60;99.90;;;;;;5103012;28;20098;-58
2022/04/30 01:17:59;;;;;;;5.10;3.85;;;7.70;99.90;;;;;;5111619;28;20047;-59
2022/04/30 01:20:27;;;;;;;6.05;3.50;;;7.70;99.90;;;;;;5111017;28;20051;-59
2022/04/30 01:23:03;;;;;;;6.50;3.90;;;7.80;99.90;;;;;;5098707;28;20040;-59
2022/04/30 01:25:31;;;;;;;8.65;4.32;;;7.80;99.90;;;;;;5070953;28;20041;-59
2022/04/30 01:27:59;;;;;;;6.30;4.25;;;7.90;99.90;;;;;;5071294;28;20041;-59
2022/04/30 01:30:27;;;;;;;5.78;4.20;;;8.00;99.90;;;;;;5090411;28;20043;-59
2022/04/30 01:38:26;;;;;;;7.38;4.30;;;8.10;99.90;;;;;;5099382;28;20051;-59
2022/04/30 01:40:53;;;;;;;8.07;4.07;;;8.10;99.90;;;;;;5106015;28;20047;-59
2022/04/30 01:43:21;;;;;;;7.22;3.97;;;8.00;99.90;;;;;;5097075;28;20096;-59
2022/04/30 01:45:48;;;;;;;9.13;4.28;;;7.90;99.90;;;;;;5114836;28;20492;-57
2022/04/30 01:48:15;;;;;;;;;;;7.90;99.90;;;;;;5099872;28;20044;-59
2022/04/30 01:50:42;;;;;;;5.68;3.95;;;7.80;99.90;;;;;;5108186;28;19919;-59
2022/04/30 01:53:10;;;;;;;6.55;3.75;;;7.70;99.90;;;;;;5115006;28;20449;-59
2022/04/30 01:55:37;;;;;;;;;;;7.60;99.90;;;;;;5115144;28;20063;-58
2022/04/30 01:58:09;;;;;;;5.70;3.75;;;7.60;99.90;;;;;;5085807;28;19951;-59
2022/04/30 02:00:37;;;;;;;4.53;3.85;;;7.50;99.90;;;;;;5107251;28;20048;-58
2022/04/30 02:03:06;;;;;;;6.20;4.13;;;7.40;99.90;;;;;;5114865;28;20096;-59
2022/04/30 02:05:35;;;;;;;7.22;4.45;;;7.40;99.90;;;;;;5103262;28;20036;-58
2022/04/30 02:08:12;;;;;;;5.88;3.88;;;7.40;99.90;;;;;;5111096;28;20043;-58
2022/04/30 02:10:40;;;;;;;;;;;7.30;99.90;;;;;;5114399;28;20051;-58
2022/04/30 02:13:09;;;;;;;6.07;4.05;;;7.10;99.90;;;;;;5105724;28;19989;-58
2022/04/30 02:15:39;;;;;;;6.18;3.90;;;7.10;99.90;;;;;;5105916;28;20055;-58
2022/04/30 02:18:08;;;;;;;10.35;4.20;;;7.10;99.90;;;;;;5114308;28;20413;-58
2022/04/30 02:20:38;;;;;;;14.43;5.72;;;7.20;99.90;;;;;;5114071;28;20044;-58
2022/04/30 02:23:08;;;;;;;9.18;5.00;;;7.20;99.90;;;;;;5097480;28;20048;-58
2022/04/30 02:25:35;;;;;;;9.45;4.85;;;7.30;99.90;;;;;;5105678;28;20039;-58
2022/04/30 02:28:08;;;;;;;11.68;5.55;;;7.30;99.90;;;;;;5114176;28;20043;-58
2022/04/30 02:30:37;;;;;;;13.20;5.85;;;7.30;99.90;;;;;;5113941;28;20046;-59
2022/04/30 02:33:09;;;;;;;11.13;5.57;;;7.20;99.90;;;;;;5104269;28;20048;-59
2022/04/30 02:35:38;;;;;;;13.93;5.55;;;7.20;99.90;;;;;;5107079;28;20039;-59
2022/04/30 02:38:08;;;;;;;13.68;6.00;;;7.20;99.90;;;;;;5114106;28;20055;-58
2022/04/30 02:40:36;;;;;;;11.13;6.15;;;7.20;99.90;;;;;;5106003;28;20044;-58
2022/04/30 02:43:06;;;;;;;9.73;6.18;;;7.30;99.90;;;;;;5105454;28;20036;-58
2022/04/30 02:45:35;;;;;;;15.20;7.00;;;7.30;99.90;;;;;;5114054;28;20047;-59
2022/04/30 02:48:03;;;;;;;9.77;5.75;;;7.20;99.90;;;;;;5111376;28;20488;-58
2022/04/30 02:50:30;;;;;;;10.43;5.80;;;7.20;99.90;;;;;;5093363;28;20089;-59
2022/04/30 02:52:58;;;;;;;;;;;7.10;99.90;;;;;;5110095;28;20097;-58
2022/04/30 02:55:25;;;;;;;6.93;4.85;;;7.10;99.90;;;;;;5113752;28;19972;-58
2022/04/30 03:00:47;;;;;;;9.98;5.63;;;7.00;99.90;;;;;;5099686;28;20329;-59
2022/04/30 03:03:37;;;;;;;12.32;5.68;;;7.00;99.90;;;;;;5095391;28;20051;-58
2022/04/30 03:06:05;;;;;;;10.85;5.30;;;6.80;99.90;;;;;;5104554;28;20034;-58
2022/04/30 03:08:32;;;;;;;11.23;5.53;;;6.70;99.90;;;;;;5105727;28;20039;-58
2022/04/30 03:11:57;;;;;;;6.68;4.68;;;6.50;99.90;;;;;;5110413;22;20509;-56
2022/04/30 03:14:24;;;;;;;6.80;4.30;;;6.40;99.90;;;;;;5079659;28;20443;-51
2022/04/30 03:22:21;;;;;;;9.82;4.72;;;6.50;99.90;;;;;;5113216;28;20055;-51
2022/04/30 03:24:48;;;;;;;8.35;4.88;;;6.50;99.90;;;;;;5113101;28;20039;-51
2022/04/30 03:27:17;;;;;;;10.67;5.77;;;6.60;99.90;;;;;;5106480;28;20047;-51
2022/04/30 03:29:46;;;;;;;5.53;4.20;;;6.70;99.90;;;;;;5106489;28;20297;-51
2022/04/30 03:32:13;;;;;;;6.35;4.13;;;6.70;99.90;;;;;;5112968;28;20047;-50
2022/04/30 03:34:40;;;;;;;5.85;4.68;;;6.70;99.90;;;;;;5112934;28;20089;-52
2022/04/30 03:37:07;;;;;;;8.80;3.85;;;6.80;99.90;;;;;;5106128;28;20429;-51
2022/04/30 03:39:34;;;;;;;7.87;4.17;;;6.80;99.90;;;;;;5105007;28;20084;-53
2022/04/30 03:42:01;;;;;;;8.80;5.00;;;6.80;99.90;;;;;;5112611;28;20278;-53
2022/04/30 03:44:28;;;;;;;;;;;6.80;99.90;;;;;;5108349;28;20552;-52
2022/04/30 03:46:55;;;;;;;7.40;4.25;;;6.70;99.90;;;;;;5100549;28;19924;-51
2022/04/30 03:49:21;;;;;;;7.03;3.83;;;6.70;99.90;;;;;;5103928;28;20442;-53
2022/04/30 03:51:48;;;;;;;8.02;4.18;;;6.70;99.90;;;;;;5090943;28;20094;-53
2022/04/30 03:54:15;;;;;;;7.82;4.57;;;6.70;99.90;;;;;;5102316;28;20044;-51
2022/04/30 03:56:42;;;;;;;5.00;4.03;;;6.70;99.90;;;;;;5112622;28;20048;-53
2022/04/30 03:59:08;;;;;;;6.97;4.53;;;6.70;99.90;;;;;;5111465;28;20285;-53
2022/04/30 04:01:37;;;;;;;8.77;4.10;;;6.70;99.90;;;;;;5106247;28;20290;-52
2022/04/30 04:04:04;;;;;;;6.63;4.93;;;6.70;99.90;;;;;;5100553;28;20071;-53
2022/04/30 04:06:32;;;;;;;8.15;4.22;;;6.70;99.90;;;;;;5112360;28;20480;-52
2022/04/30 04:08:59;;;;;;;6.95;4.30;;;6.70;99.90;;;;;;5112402;28;20448;-52
2022/04/30 04:11:26;;;;;;;5.47;4.10;;;6.80;99.90;;;;;;5107044;28;20039;-51
2022/04/30 04:19:26;;;;;;;6.93;4.57;;;6.90;99.90;;;;;;5071380;28;20123;-51
2022/04/30 04:21:52;;;;;;;7.85;4.63;;;6.90;99.90;;;;;;5092693;28;20047;-51
2022/04/30 04:27:04;;;;;;;9.57;4.38;;;6.90;99.90;;;;;;5112262;28;20493;-52
2022/04/30 04:29:31;;;;;;;6.32;4.72;;;6.90;99.90;;;;;;5111640;28;20055;-53
2022/04/30 04:31:58;;;;;;;7.93;5.10;;;6.90;99.90;;;;;;5099293;28;20430;-51
2022/04/30 04:34:25;;;;;;;8.70;5.15;;;6.80;99.90;;;;;;5111616;28;20046;-52
2022/04/30 04:36:51;;;;;;;9.70;4.70;;;6.80;99.90;;;;;;5111978;28;20109;-51
2022/04/30 04:39:18;;;;;;;7.90;5.05;;;6.80;99.90;;;;;;5111375;28;20040;-54
2022/04/30 04:41:45;;;;;;;7.28;4.65;;;6.90;99.90;;;;;;5099129;28;20089;-50
2022/04/30 04:44:11;;;;;;;7.27;4.63;;;6.90;99.90;;;;;;5109817;28;20052;-51
2022/04/30 04:46:39;;;;;;;12.73;5.63;;;7.00;99.90;;;;;;5111672;28;20354;-52
2022/04/30 04:49:06;;;;;;;7.18;4.40;;;7.10;99.90;;;;;;5107494;28;20085;-53
2022/04/30 04:51:34;;;;;;;;;;;7.20;99.90;;;;;;5104197;28;20040;-55
2022/04/30 04:54:02;;;;;;;6.18;4.40;;;7.20;99.90;;;;;;5112039;28;20358;-51
2022/04/30 04:56:29;;;;;;;5.25;4.22;;;7.20;99.90;;;;;;5111855;28;20043;-51
2022/04/30 04:58:56;;;;;;;12.63;5.22;;;7.20;99.90;;;;;;5083421;28;20047;-51
2022/04/30 05:01:23;;;;;;;8.23;4.85;;;7.30;99.90;;;;;;5102761;28;20043;-52
2022/04/30 05:03:51;;;;;;;8.23;4.05;;;7.40;99.90;;;;;;5111665;28;20453;-51
2022/04/30 05:06:18;;;;;;;8.80;4.57;;;7.40;99.90;;;;;;5106491;28;20047;-51
2022/04/30 05:08:45;;;;;;;;;;;7.40;99.90;;;;;;5106303;28;20040;-51
2022/04/30 05:11:12;;;;;;;7.55;4.28;;;7.50;99.90;;;;;;5095110;28;20278;-52
2022/04/30 05:13:38;;;;;;;5.97;4.18;;;7.60;99.90;;;;;;5115656;28;20073;-55
2022/04/30 05:16:05;;;;;;;8.40;4.75;;;7.60;99.90;;;;;;5110790;28;20093;-55
2022/04/30 05:18:32;;;;;;;6.65;5.15;;;7.70;99.90;;;;;;5107906;28;20047;-53
2022/04/30 05:20:59;;;;;;;7.43;4.80;;;7.80;99.90;;;;;;5115204;28;20444;-52
2022/04/30 05:23:26;;;;;;;7.47;5.13;;;7.90;99.90;;;;;;5115490;28;20039;-51
2022/04/30 05:25:53;;;;;;;8.20;5.33;;;8.00;99.90;;;;;;5106641;28;20035;-53
2022/04/30 05:28:20;;;;;;;7.70;4.82;;;8.20;99.90;;;;;;5106950;28;20281;-52
2022/04/30 05:30:47;;;;;;;;;;;8.30;99.90;;;;;;5115309;28;20044;-54
2022/04/30 05:33:13;;;;;;;12.20;6.75;;;8.50;99.90;;;;;;5115385;28;19969;-53
2022/04/30 05:35:40;;;;;;;15.77;5.95;;;8.70;99.90;;;;;;5106031;28;20096;-52
2022/04/30 05:38:07;;;;;;;9.30;5.90;;;9.00;99.90;;;;;;5112474;28;20105;-54
2022/04/30 05:40:34;;;;;;;10.15;6.38;;;9.20;99.90;;;;;;5114692;28;20047;-52
2022/04/30 05:43:00;;;;;;;7.97;6.03;;;9.40;99.90;;;;;;5115266;28;20048;-53
2022/04/30 05:45:27;;;;;;;13.73;6.15;;;9.60;99.90;;;;;;5105145;28;20431;-51
2022/04/30 05:47:54;;;;;;;7.10;6.25;;;9.70;99.90;;;;;;5110229;28;20079;-51
2022/04/30 05:50:20;;;;;;;12.75;7.85;;;9.80;99.90;;;;;;5114605;28;20051;-50
2022/04/30 05:52:48;;;;;;;11.60;6.85;;;9.90;99.90;;;;;;5111232;28;20027;-51
2022/04/30 05:55:15;;;;;;;8.98;6.68;;;9.80;99.90;;;;;;5106145;28;20066;-51
2022/04/30 05:57:42;;;;;;;8.70;6.60;;;9.80;99.90;;;;;;5114968;28;20042;-50
2022/04/30 06:00:09;;;;;;;8.98;6.80;;;9.90;99.90;;;;;;5114256;28;20046;-53
2022/04/30 06:02:36;;;;;;;;;;;10.00;99.90;;;;;;5106762;28;20040;-51
2022/04/30 06:05:03;;;;;;;9.65;7.05;;;10.10;99.90;;;;;;5111186;28;19919;-52
2022/04/30 06:07:30;;;;;;;12.20;6.82;;;10.30;99.90;;;;;;5114638;28;20040;-52
2022/04/30 06:09:57;;;;;;;10.90;6.95;;;10.40;99.90;;;;;;5114141;28;20066;-51
2022/04/30 06:12:24;;;;;;;11.13;7.03;;;10.40;99.90;;;;;;5105106;28;20028;-53
2022/04/30 06:14:50;;;;;;;11.38;6.93;;;10.50;99.90;;;;;;5109411;28;20055;-52
2022/04/30 06:17:17;;;;;;;9.90;6.28;;;10.60;99.90;;;;;;5114609;28;20051;-52
2022/04/30 06:19:44;;;;;;;15.43;7.25;;;10.70;99.90;;;;;;5109218;28;20050;-54
2022/04/30 06:22:11;;;;;;;9.07;5.90;;;10.80;99.90;;;;;;5104961;28;20450;-51
2022/04/30 06:24:38;;;;;;;;;;;10.90;99.90;;;;;;5114861;28;20043;-52
2022/04/30 06:27:05;;;;;;;11.48;6.28;;;11.00;99.90;;;;;;5109573;28;19937;-53
2022/04/30 06:29:32;;;;;;;9.63;5.82;;;11.00;99.90;;;;;;5105354;28;20484;-54
2022/04/30 06:31:59;;;;;;;7.72;5.53;;;11.10;99.90;;;;;;5111553;28;20040;-54
2022/04/30 06:34:26;;;;;;;10.07;6.03;;;11.30;99.90;;;;;;5093295;28;20040;-51
2022/04/30 06:36:53;;;;;;;11.95;6.40;;;11.30;99.90;;;;;;5093475;28;20097;-54
2022/04/30 06:39:19;;;;;;;9.20;6.38;;;11.50;99.90;;;;;;5093634;28;20051;-51
2022/04/30 06:41:46;;;;;;;9.07;6.43;;;11.70;99.90;;;;;;5092992;28;20097;-51
2022/04/30 06:44:13;;;;;;;10.05;6.32;;;11.70;99.90;;;;;;5072416;28;20297;-55
2022/04/30 06:46:40;;;;;;;10.73;5.85;;;11.80;99.90;;;;;;5093173;28;20082;-51
2022/04/30 06:49:07;;;;;;;7.47;5.50;;;12.00;99.90;;;;;;5093565;28;20118;-52
2022/04/30 06:51:34;;;;;;;8.25;5.82;;;12.20;99.90;;;;;;5092728;28;20061;-52
2022/04/30 06:59:36;;;;;;;9.00;6.40;;;12.40;99.90;;;;;;5092391;28;20089;-51
2022/04/30 07:02:11;;;;;;;9.82;5.18;;;12.50;99.90;;;;;;5092496;28;20040;-51
2022/04/30 07:04:40;;;;;;;8.93;5.75;;;12.60;99.90;;;;;;5092052;28;20040;-55
2022/04/30 07:07:07;;;;;;;11.70;5.90;;;12.60;99.90;;;;;;5091371;28;20064;-53
2022/04/30 07:09:35;;;;;;;8.68;6.15;;;12.60;99.90;;;;;;5092150;28;20109;-52
2022/04/30 07:12:04;;;;;;;8.77;6.50;;;12.70;99.90;;;;;;5100763;28;20051;-53
2022/04/30 07:14:32;;;;;;;14.07;6.45;;;12.70;99.90;;;;;;5097925;28;20403;-52
2022/04/30 07:16:59;;;;;;;10.05;6.00;;;12.70;99.90;;;;;;5112887;28;20498;-55
2022/04/30 07:19:26;;;;;;;9.93;6.13;;;12.70;99.90;;;;;;5112503;28;20058;-51
2022/04/30 07:21:52;;;;;;;12.73;5.95;;;12.90;99.90;;;;;;5103076;28;20512;-51
2022/04/30 07:24:19;;;;;;;8.63;6.10;;;13.10;99.90;;;;;;5108537;28;20052;-54
2022/04/30 07:26:46;;;;;;;8.85;5.60;;;13.30;99.90;;;;;;5092405;28;20644;-53
2022/04/30 07:29:13;;;;;;;6.13;4.80;;;13.40;99.90;;;;;;5091420;28;20040;-55
2022/04/30 07:31:40;;;;;;;7.57;5.85;;;13.60;99.90;;;;;;5103812;28;20047;-53
2022/04/30 07:34:09;;;;;;;;;;;13.70;99.90;;;;;;5113075;28;20078;-50
2022/04/30 07:36:37;;;;;;;6.22;4.88;;;13.70;99.90;;;;;;5112565;28;19924;-52
2022/04/30 07:39:04;;;;;;;7.57;5.30;;;13.70;99.90;;;;;;5105336;28;20047;-54
2022/04/30 07:41:31;;;;;;;7.82;5.22;;;13.70;99.90;;;;;;5104484;28;20557;-51
2022/04/30 07:43:58;;;;;;;8.10;5.10;;;13.80;99.90;;;;;;5112663;28;20089;-52
2022/04/30 07:46:25;;;;;;;6.93;5.35;;;14.00;99.90;;;;;;5105365;28;20081;-51
2022/04/30 07:48:52;;;;;;;5.85;4.70;;;14.20;99.90;;;;;;5103897;28;20040;-53
2022/04/30 07:51:33;;;;;;;6.82;4.80;;;14.40;99.90;;;;;;5111652;28;20031;-52
2022/04/30 07:54:03;;;;;;;6.53;4.65;;;14.40;99.90;;;;;;5107280;28;20036;-52
2022/04/30 07:56:30;;;;;;;7.18;4.53;;;14.40;99.90;;;;;;5092418;28;20119;-53
2022/04/30 07:58:57;;;;;;;7.30;4.53;;;14.50;99.90;;;;;;5091835;28;20048;-52
2022/04/30 08:01:24;;;;;;;7.75;5.07;;;14.60;99.90;;;;;;5091413;28;20052;-53
2022/04/30 08:03:51;;;;;;;5.60;4.63;;;14.70;99.90;;;;;;5079556;28;20036;-53
2022/04/30 08:06:17;;;;;;;6.47;5.05;;;14.90;99.90;;;;;;5103180;28;20039;-53
2022/04/30 08:08:44;;;;;;;7.13;5.68;;;14.70;99.90;;;;;;5112235;28;20036;-51
2022/04/30 08:11:13;;;;;;;7.40;4.82;;;14.70;99.90;;;;;;5111672;28;20078;-51
2022/04/30 08:13:40;;;;;;;15.20;5.68;;;14.60;99.90;;;;;;5102824;28;20040;-56
2022/04/30 08:16:10;;;;;;;8.30;5.63;;;14.80;99.90;;;;;;5103432;28;20044;-56
2022/04/30 08:18:38;;;;;;;8.38;6.10;;;14.90;99.90;;;;;;5112378;28;20051;-52
2022/04/30 08:21:06;;;;;;;15.23;6.43;;;15.10;99.90;;;;;;5111350;28;20050;-54
2022/04/30 08:23:33;;;;;;;9.30;6.22;;;15.20;99.90;;;;;;5101314;28;20090;-53
2022/04/30 08:26:01;;;;;;;;;;;15.40;99.90;;;;;;5108552;28;20583;-51
2022/04/30 08:28:28;;;;;;;9.45;7.10;;;15.50;99.90;;;;;;5111676;28;19965;-54
2022/04/30 08:30:56;;;;;;;13.20;7.78;;;15.60;99.90;;;;;;5104250;28;20040;-52
2022/04/30 08:33:26;;;;;;;9.05;6.63;;;15.60;99.90;;;;;;5103021;28;20039;-51
2022/04/30 08:35:53;;;;;;;10.15;7.32;;;15.80;99.90;;;;;;5111363;28;20061;-52
2022/04/30 08:38:20;;;;;;;11.25;7.38;;;16.10;99.90;;;;;;5107308;28;20451;-53
2022/04/30 08:40:47;;;;;;;12.98;7.90;;;16.40;99.90;;;;;;5084578;28;20047;-51
2022/04/30 08:43:15;;;;;;;11.07;7.18;;;16.70;99.90;;;;;;5111550;28;20553;-53
2022/04/30 08:45:45;;;;;;;10.07;7.32;;;17.00;99.90;;;;;;5111786;28;20043;-53
2022/04/30 08:48:14;;;;;;;11.25;7.78;;;17.30;99.90;;;;;;5105718;28;20044;-52
2022/04/30 08:50:43;;;;;;;10.30;7.68;;;17.30;99.90;;;;;;5104363;28;20050;-51
2022/04/30 08:53:10;;;;;;;10.85;7.70;;;17.20;99.90;;;;;;5111476;28;20036;-53
2022/04/30 08:55:37;;;;;;;12.65;7.25;;;17.20;99.90;;;;;;5111639;28;20046;-50
2022/04/30 08:58:04;;;;;;;14.07;7.88;;;17.20;99.90;;;;;;5098934;28;20048;-52
2022/04/30 09:00:41;;;;;;;10.75;7.32;;;17.40;99.90;;;;;;5111089;28;20096;-54
2022/04/30 09:03:12;;;;;;;10.57;7.78;;;17.30;99.90;;;;;;5111585;28;20504;-53
2022/04/30 09:05:39;;;;;;;13.27;7.80;;;17.20;99.90;;;;;;5102801;28;20112;-52
2022/04/30 09:08:06;;;;;;;10.25;7.03;;;17.30;99.90;;;;;;5084592;28;20445;-51
2022/04/30 09:10:35;;;;;;;14.07;7.10;;;17.20;99.90;;;;;;5116218;22;20092;-59
2022/04/30 09:13:05;;;;;;;10.55;7.18;;;17.10;99.90;;;;;;5090549;28;20040;-59
2022/04/30 09:15:33;;;;;;;9.65;7.38;;;17.00;99.90;;;;;;5090854;28;20055;-58
2022/04/30 09:18:01;;;;;;;11.82;6.68;;;17.00;99.90;;;;;;5090869;28;20036;-58
2022/04/30 09:20:30;;;;;;;11.80;7.35;;;16.90;99.90;;;;;;5085411;28;20044;-59
2022/04/30 09:22:57;;;;;;;12.70;7.20;;;16.90;99.90;;;;;;5090880;28;20036;-59
2022/04/30 09:25:24;;;;;;;10.32;7.93;;;17.00;99.90;;;;;;5090620;28;20101;-58
2022/04/30 09:28:00;;;;;;;11.27;7.00;;;17.10;99.90;;;;;;5090969;28;20036;-59
2022/04/30 09:30:29;;;;;;;11.95;8.20;;;17.30;99.90;;;;;;5068895;28;20907;-58
2022/04/30 09:33:05;;;;;;;9.25;6.78;;;17.30;99.90;;;;;;5073235;28;20051;-59
2022/04/30 09:38:24;;;;;;;7.75;6.43;;;17.10;99.90;;;;;;5075676;28;20105;-58
2022/04/30 09:40:57;;;;;;;11.80;7.50;;;17.00;99.90;;;;;;5089950;28;20065;-58
2022/04/30 09:43:30;;;;;;;9.18;6.93;;;17.00;99.90;;;;;;5090901;28;20044;-58
2022/04/30 09:46:07;;;;;;;9.93;7.38;;;16.90;99.90;;;;;;5088063;28;20711;-59
2022/04/30 09:54:07;;;;;;;9.93;7.10;;;16.60;99.90;;;;;;5090393;28;20433;-58
2022/04/30 09:56:44;;;;;;;14.73;6.95;;;16.70;99.90;;;;;;5078236;28;20071;-58
2022/04/30 09:59:15;;;;;;;10.93;6.80;;;16.70;99.90;;;;;;5094290;28;20446;-58
2022/04/30 10:01:44;;;;;;;12.07;7.13;;;16.80;99.90;;;;;;5093707;28;20043;-59
2022/04/30 10:04:13;;;;;;;12.27;7.78;;;16.90;99.90;;;;;;5094373;28;20050;-58
2022/04/30 10:06:45;;;;;;;12.13;8.00;;;16.90;99.90;;;;;;5083596;28;20101;-58
2022/04/30 10:09:39;;;;;;;12.50;7.63;;;16.80;99.90;;;;;;5093559;28;20032;-58
2022/04/30 10:12:17;;;;;;;9.13;7.45;;;16.70;99.90;;;;;;5093974;28;20047;-58
2022/04/30 10:15:09;;;;;;;9.45;7.05;;;16.60;99.90;;;;;;5078516;28;20039;-58
2022/04/30 10:17:39;;;;;;;;;;;16.70;99.90;;;;;;5080131;28;20044;-58
2022/04/30 10:20:16;;;;;;;10.95;7.03;;;16.90;99.90;;;;;;5093330;28;19965;-59
2022/04/30 10:22:49;;;;;;;12.07;7.05;;;17.10;99.90;;;;;;5080887;28;20047;-58
2022/04/30 10:25:17;;;;;;;11.18;7.13;;;17.10;99.90;;;;;;5093650;28;20051;-58
2022/04/30 10:27:46;;;;;;;9.55;6.97;;;17.10;99.90;;;;;;5093614;28;20048;-58
2022/04/30 10:30:24;;;;;;;9.77;7.50;;;17.10;99.90;;;;;;5083444;28;20493;-59
2022/04/30 10:32:58;;;;;;;;;;;17.00;99.90;;;;;;5093906;28;20044;-59
2022/04/30 10:35:39;;;;;;;11.57;7.32;;;16.80;99.90;;;;;;5093693;28;19920;-59
2022/04/30 10:38:18;;;;;;;10.05;7.25;;;16.80;99.90;;;;;;5084596;28;20095;-58
2022/04/30 10:40:47;;;;;;;11.57;7.55;;;16.40;99.90;;;;;;5091410;28;20100;-58
2022/04/30 10:43:31;;;;;;;10.05;7.90;;;16.30;99.90;;;;;;5072300;28;20056;-58
2022/04/30 10:46:03;;;;;;;9.85;7.07;;;16.30;99.90;;;;;;5052942;28;20044;-59
2022/04/30 10:48:33;;;;;;;10.82;7.85;;;15.90;99.90;;;;;;5077115;28;20659;-59
2022/04/30 10:51:10;;;;;;;12.98;7.93;;;16.10;99.90;;;;;;5074872;28;20040;-58
2022/04/30 10:53:45;;;;;;;11.25;7.43;;;15.90;99.90;;;;;;5092783;28;20036;-59
2022/04/30 10:56:13;;;;;;;9.63;7.20;;;15.70;99.90;;;;;;5090103;28;20040;-58
2022/04/30 10:58:43;;;;;;;11.23;7.20;;;15.40;99.90;;;;;;5093054;28;20044;-58
2022/04/30 11:01:17;;;;;;;10.13;6.47;;;15.10;99.90;;;;;;5087485;28;20095;-58
2022/04/30 11:03:46;;;;;;;9.65;6.53;;;15.10;99.90;;;;;;5092944;28;20081;-58
2022/04/30 11:06:19;;;;;;;10.10;6.95;;;15.10;99.90;;;;;;5092684;28;20055;-59
2022/04/30 11:09:00;;;;;;;7.82;6.03;;;15.10;99.90;;;;;;5074617;28;20048;-59
2022/04/30 11:11:28;;;;;;;7.38;5.68;;;15.10;99.90;;;;;;5079902;28;20036;-59
2022/04/30 11:14:06;;;;;;;8.98;6.57;;;15.20;99.90;;;;;;5092705;28;20040;-59
2022/04/30 11:16:34;;;;;;;;;;;15.00;99.90;;;;;;5093133;28;20040;-58
2022/04/30 11:19:08;;;;;;;9.35;6.57;;;14.80;99.90;;;;;;5070044;28;19920;-58
2022/04/30 11:21:36;;;;;;;9.27;6.60;;;14.50;99.90;;;;;;5072242;28;20057;-59
2022/04/30 11:24:04;;;;;;;8.73;6.53;;;14.50;99.90;;;;;;5073343;28;20056;-58
2022/04/30 11:26:39;;;;;;;8.82;6.60;;;14.30;99.90;;;;;;5071849;28;20097;-58
2022/04/30 11:29:13;;;;;;;9.73;7.10;;;14.00;99.90;;;;;;5072196;28;20110;-58
2022/04/30 11:31:43;;;;;;;9.30;6.95;;;13.80;99.90;;;;;;5080794;28;20489;-58
2022/04/30 11:34:17;;;;;;;9.30;6.93;;;13.70;99.90;;;;;;5092426;28;20082;-58
2022/04/30 11:36:47;;;;;;;10.98;6.60;;;13.70;99.90;;;;;;5092166;28;20048;-58
2022/04/30 11:39:15;;;;;;;9.95;7.20;;;13.80;99.90;;;;;;5081003;28;20045;-58
2022/04/30 11:41:44;;;;;;;10.63;6.97;;;13.90;99.90;;;;;;5091501;28;20443;-58
2022/04/30 11:44:15;;;;;;;8.07;6.35;;;14.00;99.90;;;;;;5092396;28;20043;-58
2022/04/30 11:46:44;;;;;;;9.20;6.63;;;13.90;99.90;;;;;;5092331;28;20047;-58
2022/04/30 11:49:14;;;;;;;10.68;6.63;;;13.70;99.90;;;;;;5081307;28;20438;-58
2022/04/30 11:52:01;;;;;;;9.80;7.13;;;13.40;99.90;;;;;;5067942;28;20032;-58
2022/04/30 11:54:29;;;;;;;11.18;6.78;;;13.50;99.90;;;;;;5071687;28;20047;-58
2022/04/30 11:56:59;;;;;;;10.63;7.30;;;13.50;99.90;;;;;;5073459;28;20032;-58
2022/04/30 11:59:34;;;;;;;10.43;6.40;;;13.40;99.90;;;;;;5090351;28;20048;-58
2022/04/30 12:02:03;;;;;;;9.95;7.40;;;13.30;99.90;;;;;;5092266;28;20036;-58
2022/04/30 12:04:37;;;;;;;11.82;8.25;;;13.30;99.90;;;;;;5091945;28;20067;-58
2022/04/30 12:07:06;;;;;;;13.75;8.50;;;13.10;99.90;;;;;;5085979;28;20044;-58
2022/04/30 12:09:38;;;;;;;13.82;9.75;;;12.90;99.90;;;;;;5091619;28;20048;-58
2022/04/30 12:12:22;;;;;;;16.25;10.50;;;12.90;99.90;;;;;;5092083;28;20032;-58
2022/04/30 12:14:55;;;;;;;12.57;9.80;;;12.70;99.90;;;;;;5084138;28;20034;-58
2022/04/30 12:17:30;;;;;;;11.55;8.48;;;12.70;99.90;;;;;;5091936;28;20051;-58
2022/04/30 12:26:05;;;;;;;18.98;11.32;;;12.40;99.90;;;;;;5051614;28;20044;-58
2022/04/30 12:28:46;;;;;;;15.27;9.50;;;12.30;99.90;;;;;;5051527;28;20047;-58
2022/04/30 12:31:13;;;;;;;12.75;8.60;;;12.00;99.90;;;;;;5054117;28;20510;-58
2022/04/30 12:33:45;;;;;;;14.30;9.35;;;11.90;99.90;;;;;;5091489;28;20115;-58
2022/04/30 12:36:13;;;;;;;11.57;8.73;;;11.80;99.90;;;;;;5091814;28;20553;-58
2022/04/30 12:38:50;;;;;;;15.32;9.43;;;11.70;99.90;;;;;;5091640;28;20040;-58
2022/04/30 12:41:17;;;;;;;13.25;9.13;;;11.70;99.90;;;;;;5081095;28;20157;-58
2022/04/30 12:43:44;;;;;;;17.88;9.55;;;11.60;99.90;;;;;;5082572;28;20048;-58
2022/04/30 12:46:19;;;;;;;14.10;9.00;;;11.50;99.90;;;;;;5070865;28;20037;-58
2022/04/30 12:48:46;;;;;;;20.45;12.30;;;11.60;99.90;;;;;;5067029;28;20072;-58
2022/04/30 12:51:14;;;;;;;23.40;14.65;;;11.60;99.90;;;;;;5087178;28;20438;-58
2022/04/30 12:53:40;;;;;;;21.73;14.65;;;11.60;99.90;;;;;;5071027;28;20037;-58
2022/04/30 12:56:07;;;;;;;26.90;16.63;;;11.70;99.90;;;;;;5068464;28;20040;-58
2022/04/30 12:58:35;;;;;;;28.95;16.08;;;11.80;99.90;;;;;;5070717;28;20104;-58
2022/04/30 13:01:01;;;;;;;;;;;11.90;99.90;;;;;;5091150;28;20450;-58
2022/04/30 13:03:28;;;;;;;29.35;15.70;;;11.90;99.90;;;;;;5091461;28;20339;-58
2022/04/30 13:05:55;;;;;;;23.77;16.67;;;12.00;99.90;;;;;;5085848;28;20086;-58
2022/04/30 13:08:23;;;;;;;27.17;16.27;;;11.90;99.90;;;;;;5079388;28;20500;-58
2022/04/30 13:13:36;;;;;;;26.17;17.30;;;11.90;99.90;;;;;;5068575;28;20562;-58
2022/04/30 13:16:05;;;;;;;25.67;17.15;;;11.90;99.90;;;;;;5068940;28;20037;-58
2022/04/30 13:18:33;;;;;;;20.73;13.50;;;11.90;99.90;;;;;;5068690;28;20044;-58
2022/04/30 13:21:01;;;;;;;19.85;12.90;;;11.90;99.90;;;;;;5070252;28;20060;-58
2022/04/30 13:23:28;;;;;;;20.95;12.50;;;12.00;99.90;;;;;;5070520;28;20049;-58
2022/04/30 13:25:55;;;;;;;18.38;12.55;;;11.90;99.90;;;;;;5068340;28;20044;-58
2022/04/30 13:28:22;;;;;;;19.02;12.20;;;11.90;99.90;;;;;;5071072;28;20045;-58
2022/04/30 13:30:48;;;;;;;17.92;12.80;;;12.00;99.90;;;;;;5070319;28;20063;-58
2022/04/30 13:33:16;;;;;;;17.95;11.60;;;12.10;99.90;;;;;;5056794;28;20405;-58
2022/04/30 13:35:43;;;;;;;16.52;12.10;;;12.10;99.90;;;;;;5076716;28;20096;-58
2022/04/30 13:38:10;;;;;;;20.52;12.23;;;12.20;99.90;;;;;;5094907;28;20105;-57
2022/04/30 13:40:36;;;;;;;19.83;12.43;;;12.20;99.90;;;;;;5094134;28;20492;-58
2022/04/30 13:43:09;;;;;;;15.15;12.63;;;12.20;99.90;;;;;;5079633;28;20124;-58
2022/04/30 13:45:36;;;;;;;15.27;11.35;;;12.30;99.90;;;;;;5094678;28;20066;-58